Cincinnati, Ohio
Traffic Map
Current Weather Conditions
Cincinnati, Ohio
Clear
Clear
13°
Feels Like: 13°
Wind Chill: 13° Ceiling: Unl
Heat Index: 13° Visibility: 10mi
Dew Point: 10° Wind: 0mph
Humidity: 80% Direction: ° ()
Pressure: 30.03in Gusts: 0mph
Raw Report DataKLUK 290653Z AUTO 00000KT 10SM CLR 13/10 A3003 RMK AO2 SLP166 T01330100
Traffic Incident Summary
Active as of:
Severity:
Category:
InformationThere was an issue retrieving the traffic information for this location. Please try a different location or try again shortly.
Advertisements
Track Severe Weather on mobile